Time;durP1;ratioP1;P1;durP2;ratioP2;P2;SDS_P1;SDS_P2;PMS_P1;PMS_P2;Temp;Humidity;BMP_temperature;BMP_pressure;BME280_temperature;BME280_humidity;BME280_pressure;Samples;Min_cycle;Max_cycle;Signal;HPM_P1;HPM_P2
2020/12/04 00:01:03;;;;;;;21.40;11.13;;;;;;;;;;2081776;28;20030;-66
2020/12/04 00:02:22;;;;;;;20.88;10.85;;;;;;;;;;2078824;28;20033;-66
2020/12/04 00:03:41;;;;;;;21.73;11.45;;;;;;;;;;2082107;28;20108;-66
2020/12/04 00:05:00;;;;;;;21.13;10.27;;;;;;;;;;2080356;28;20477;-66
2020/12/04 00:06:19;;;;;;;21.50;11.40;;;;;;;;;;2083043;28;20112;-66
2020/12/04 00:07:38;;;;;;;25.70;11.88;;;;;;;;;;2082729;28;20116;-66
2020/12/04 00:08:57;;;;;;;24.70;11.73;;;;;;;;;;2081920;28;20033;-67
2020/12/04 00:10:16;;;;;;;18.67;11.23;;;;;;;;;;2079346;28;20034;-66
2020/12/04 00:11:35;;;;;;;19.40;11.77;;;;;;;;;;2079028;28;20025;-66
2020/12/04 00:12:54;;;;;;;22.00;11.95;;;;;;;;;;2080378;28;20030;-67
2020/12/04 00:14:13;;;;;;;23.30;12.05;;;;;;;;;;2081769;28;20021;-67
2020/12/04 00:15:32;;;;;;;21.60;11.93;;;;;;;;;;2077741;28;20433;-67
2020/12/04 00:16:51;;;;;;;17.52;10.98;;;;;;;;;;2080342;28;20033;-67
2020/12/04 00:18:09;;;;;;;20.60;11.35;;;;;;;;;;2082012;28;20025;-66
2020/12/04 00:19:28;;;;;;;20.95;10.70;;;;;;;;;;2079055;28;20065;-66
2020/12/04 00:20:47;;;;;;;23.80;11.88;;;;;;;;;;2078521;28;20049;-66
2020/12/04 00:22:06;;;;;;;20.35;11.32;;;;;;;;;;2082515;28;20033;-66
2020/12/04 00:23:25;;;;;;;20.80;12.32;;;;;;;;;;2081064;28;20115;-67
2020/12/04 00:24:44;;;;;;;24.92;12.38;;;;;;;;;;2080760;28;20045;-66
2020/12/04 00:26:03;;;;;;;21.88;12.10;;;;;;;;;;2079677;28;20033;-66
2020/12/04 00:27:22;;;;;;;24.02;13.55;;;;;;;;;;2082024;28;20505;-66
2020/12/04 00:28:40;;;;;;;21.88;11.90;;;;;;;;;;2080385;28;20085;-66
2020/12/04 00:29:59;;;;;;;20.73;12.18;;;;;;;;;;2078791;28;20041;-66
2020/12/04 00:31:18;;;;;;;24.80;11.93;;;;;;;;;;2082555;28;20501;-66
2020/12/04 00:32:37;;;;;;;23.50;12.63;;;;;;;;;;2081629;28;20041;-66
2020/12/04 00:33:56;;;;;;;21.85;12.35;;;;;;;;;;2081829;28;20440;-66
2020/12/04 00:35:15;;;;;;;24.98;13.48;;;;;;;;;;2080179;28;20437;-66
2020/12/04 00:36:34;;;;;;;24.90;13.57;;;;;;;;;;2082198;28;20102;-66
2020/12/04 00:37:53;;;;;;;26.73;13.05;;;;;;;;;;2080755;28;20377;-66
2020/12/04 00:39:12;;;;;;;21.63;12.25;;;;;;;;;;2082291;28;20021;-67
2020/12/04 00:40:31;;;;;;;24.10;13.77;;;;;;;;;;2081578;28;20030;-67
2020/12/04 00:41:50;;;;;;;24.98;12.70;;;;;;;;;;2080505;28;20065;-66
2020/12/04 00:43:09;;;;;;;22.90;12.07;;;;;;;;;;2080345;28;20060;-67
2020/12/04 00:44:28;;;;;;;25.13;12.82;;;;;;;;;;2077619;28;20029;-67
2020/12/04 00:45:47;;;;;;;22.00;12.93;;;;;;;;;;2079692;28;20034;-67
2020/12/04 00:47:06;;;;;;;25.58;13.18;;;;;;;;;;2081932;28;20393;-67
2020/12/04 00:48:24;;;;;;;24.67;13.70;;;;;;;;;;2078478;28;20025;-66
2020/12/04 00:49:43;;;;;;;25.40;12.65;;;;;;;;;;2081592;28;20057;-66
2020/12/04 00:51:02;;;;;;;20.73;12.65;;;;;;;;;;2081572;28;20373;-67
2020/12/04 00:52:21;;;;;;;25.48;13.77;;;;;;;;;;2079075;28;20037;-67
2020/12/04 00:53:40;;;;;;;25.60;13.20;;;;;;;;;;2081832;28;20473;-66
2020/12/04 00:54:59;;;;;;;33.22;14.02;;;;;;;;;;2083971;28;20029;-67
2020/12/04 00:56:18;;;;;;;26.13;13.75;;;;;;;;;;2081028;28;20021;-67
2020/12/04 00:57:36;;;;;;;27.70;12.70;;;;;;;;;;2079067;28;20478;-67
2020/12/04 00:58:55;;;;;;;25.77;13.40;;;;;;;;;;2081354;28;20045;-67
2020/12/04 01:00:14;;;;;;;22.58;13.18;;;;;;;;;;2081694;28;20108;-67
2020/12/04 01:01:33;;;;;;;23.75;13.82;;;;;;;;;;2079225;28;20030;-67
2020/12/04 01:02:52;;;;;;;23.45;12.60;;;;;;;;;;2082358;28;20101;-67
2020/12/04 01:04:11;;;;;;;22.67;13.05;;;;;;;;;;2081193;28;20029;-67
2020/12/04 01:05:30;;;;;;;25.83;13.45;;;;;;;;;;2081033;28;20026;-66
2020/12/04 01:06:49;;;;;;;24.17;13.85;;;;;;;;;;2080984;28;20022;-66
2020/12/04 01:08:08;;;;;;;22.17;12.40;;;;;;;;;;2081511;28;20054;-66
2020/12/04 01:09:26;;;;;;;27.50;13.82;;;;;;;;;;2081925;28;20025;-66
2020/12/04 01:10:46;;;;;;;26.85;12.45;;;;;;;;;;2079374;28;20413;-66
2020/12/04 01:12:05;;;;;;;24.40;13.18;;;;;;;;;;2081052;28;20413;-66
2020/12/04 01:13:23;;;;;;;22.58;12.48;;;;;;;;;;2082502;28;20474;-66
2020/12/04 01:14:42;;;;;;;26.88;13.05;;;;;;;;;;2080603;28;20458;-66
2020/12/04 01:16:02;;;;;;;24.20;12.60;;;;;;;;;;2080879;28;20041;-66
2020/12/04 01:17:21;;;;;;;23.02;12.10;;;;;;;;;;2082167;28;20029;-66
2020/12/04 01:18:40;;;;;;;21.73;12.38;;;;;;;;;;2080048;28;20025;-66
2020/12/04 01:19:59;;;;;;;21.35;11.70;;;;;;;;;;2081945;28;20025;-66
2020/12/04 01:21:18;;;;;;;19.95;10.95;;;;;;;;;;2081701;28;20025;-67
2020/12/04 01:22:37;;;;;;;18.92;11.45;;;;;;;;;;2081362;28;20025;-66
2020/12/04 01:23:56;;;;;;;21.05;11.73;;;;;;;;;;2078215;28;20476;-66
2020/12/04 01:25:15;;;;;;;16.15;10.63;;;;;;;;;;2081546;28;20057;-67
2020/12/04 01:26:33;;;;;;;16.55;10.15;;;;;;;;;;2081645;28;20021;-66
2020/12/04 01:27:52;;;;;;;18.42;11.13;;;;;;;;;;2080810;28;20124;-66
2020/12/04 01:29:11;;;;;;;18.50;11.43;;;;;;;;;;2081678;28;20029;-66
2020/12/04 01:30:30;;;;;;;18.05;11.20;;;;;;;;;;2081958;28;20038;-66
2020/12/04 01:31:49;;;;;;;17.88;10.10;;;;;;;;;;2075829;28;20066;-66
2020/12/04 01:33:08;;;;;;;14.50;9.18;;;;;;;;;;2079802;28;20021;-66
2020/12/04 01:34:27;;;;;;;15.15;9.35;;;;;;;;;;2081561;28;20025;-66
2020/12/04 01:35:46;;;;;;;14.82;7.95;;;;;;;;;;2078731;28;20490;-66
2020/12/04 01:37:05;;;;;;;13.70;9.15;;;;;;;;;;2082225;28;20021;-66
2020/12/04 01:38:24;;;;;;;13.93;8.40;;;;;;;;;;2082042;28;20474;-67
2020/12/04 01:39:43;;;;;;;13.38;8.60;;;;;;;;;;2078222;28;20470;-67
2020/12/04 01:41:02;;;;;;;14.18;7.50;;;;;;;;;;2080301;28;20038;-66
2020/12/04 01:42:21;;;;;;;13.00;8.43;;;;;;;;;;2077244;28;20951;-66
2020/12/04 01:43:40;;;;;;;10.27;6.43;;;;;;;;;;2081075;28;20029;-66
2020/12/04 01:44:59;;;;;;;11.07;7.47;;;;;;;;;;2080951;28;20034;-66
2020/12/04 01:46:18;;;;;;;11.20;7.18;;;;;;;;;;2081716;28;20057;-67
2020/12/04 01:47:37;;;;;;;9.88;6.88;;;;;;;;;;2080339;28;20037;-66
2020/12/04 01:48:56;;;;;;;12.63;6.93;;;;;;;;;;2081335;28;20116;-66
2020/12/04 01:50:15;;;;;;;11.60;7.07;;;;;;;;;;2078587;28;20101;-67
2020/12/04 01:51:34;;;;;;;9.02;6.15;;;;;;;;;;2080331;28;20124;-66
2020/12/04 01:52:53;;;;;;;9.23;6.30;;;;;;;;;;2081115;28;20029;-66
2020/12/04 01:54:12;;;;;;;10.00;6.15;;;;;;;;;;2081107;28;20017;-66
2020/12/04 01:55:31;;;;;;;7.90;5.40;;;;;;;;;;2079604;28;20470;-67
2020/12/04 01:56:50;;;;;;;8.23;5.60;;;;;;;;;;2081521;28;20569;-66
2020/12/04 01:58:10;;;;;;;7.60;4.82;;;;;;;;;;2080662;28;20462;-66
2020/12/04 01:59:29;;;;;;;5.95;4.78;;;;;;;;;;2080961;28;20030;-66
2020/12/04 02:00:48;;;;;;;7.95;4.55;;;;;;;;;;2078108;28;20030;-66
2020/12/04 02:02:11;;;;;;;6.95;4.60;;;;;;;;;;2076269;28;20029;-66
2020/12/04 02:03:31;;;;;;;5.70;3.72;;;;;;;;;;2076719;28;20369;-66
2020/12/04 02:04:50;;;;;;;5.22;4.03;;;;;;;;;;2077402;28;20382;-66
2020/12/04 02:06:14;;;;;;;7.85;4.68;;;;;;;;;;2077561;28;20041;-66
2020/12/04 02:07:40;;;;;;;8.35;5.30;;;;;;;;;;2080999;28;20033;-66
2020/12/04 02:09:01;;;;;;;7.80;4.20;;;;;;;;;;2081703;28;20103;-66
2020/12/04 02:10:23;;;;;;;4.72;3.65;;;;;;;;;;2081877;28;20033;-66
2020/12/04 02:11:43;;;;;;;7.43;3.10;;;;;;;;;;2077064;28;20017;-66
2020/12/04 02:13:01;;;;;;;4.53;3.80;;;;;;;;;;2077819;28;20030;-66
2020/12/04 02:14:21;;;;;;;3.97;3.60;;;;;;;;;;2076804;28;20033;-66
2020/12/04 02:15:40;;;;;;;4.80;3.03;;;;;;;;;;2077387;28;20022;-66
2020/12/04 02:16:59;;;;;;;3.97;3.15;;;;;;;;;;2074741;28;20116;-66
2020/12/04 02:18:18;;;;;;;3.55;2.90;;;;;;;;;;2076861;28;20059;-66
2020/12/04 02:19:39;;;;;;;3.90;3.35;;;;;;;;;;2077296;28;20029;-66
2020/12/04 02:20:59;;;;;;;2.90;2.65;;;;;;;;;;2077674;28;20537;-66
2020/12/04 02:22:17;;;;;;;3.33;2.78;;;;;;;;;;2079095;28;20033;-66
2020/12/04 02:23:37;;;;;;;4.40;2.83;;;;;;;;;;2080886;28;20033;-66
2020/12/04 02:24:56;;;;;;;4.47;2.40;;;;;;;;;;2076286;28;20108;-66
2020/12/04 02:26:17;;;;;;;3.17;2.70;;;;;;;;;;2069348;28;20033;-66
2020/12/04 02:27:49;;;;;;;3.13;2.45;;;;;;;;;;2077345;28;20434;-66
2020/12/04 02:29:11;;;;;;;4.07;2.92;;;;;;;;;;2079084;28;20049;-66
2020/12/04 02:30:34;;;;;;;4.30;2.25;;;;;;;;;;2080997;28;20118;-66
2020/12/04 02:31:53;;;;;;;4.57;2.47;;;;;;;;;;2076798;28;20037;-66
2020/12/04 02:33:12;;;;;;;4.25;2.65;;;;;;;;;;2074691;28;20486;-66
2020/12/04 02:34:31;;;;;;;3.08;2.60;;;;;;;;;;2076616;28;20033;-66
2020/12/04 02:35:50;;;;;;;3.25;2.55;;;;;;;;;;2071357;28;20033;-66
2020/12/04 02:37:09;;;;;;;2.92;2.25;;;;;;;;;;2078593;28;20485;-66
2020/12/04 02:38:29;;;;;;;2.85;1.90;;;;;;;;;;2079741;28;20025;-66
2020/12/04 02:39:48;;;;;;;3.33;2.70;;;;;;;;;;2078184;28;20018;-66
2020/12/04 02:41:07;;;;;;;4.70;2.20;;;;;;;;;;2075733;28;20029;-66
2020/12/04 02:42:26;;;;;;;4.15;2.50;;;;;;;;;;2078391;28;20429;-66
2020/12/04 02:43:45;;;;;;;3.95;2.30;;;;;;;;;;2080204;28;20022;-66
2020/12/04 02:45:04;;;;;;;4.28;2.38;;;;;;;;;;2072026;28;20025;-67
2020/12/04 02:46:22;;;;;;;4.22;3.00;;;;;;;;;;2080560;28;20469;-67
2020/12/04 02:47:41;;;;;;;2.72;2.00;;;;;;;;;;2078597;28;20474;-67
2020/12/04 02:49:00;;;;;;;3.53;2.00;;;;;;;;;;2079870;28;20259;-66
2020/12/04 02:50:19;;;;;;;3.03;2.25;;;;;;;;;;2078685;28;20037;-66
2020/12/04 02:51:43;;;;;;;4.43;2.55;;;;;;;;;;2080394;28;20432;-67
2020/12/04 02:53:02;;;;;;;4.18;2.35;;;;;;;;;;2081022;28;20097;-67
2020/12/04 02:54:20;;;;;;;4.68;2.10;;;;;;;;;;2081028;28;20034;-67
2020/12/04 02:55:39;;;;;;;3.42;2.50;;;;;;;;;;2076768;28;20486;-66
2020/12/04 02:56:58;;;;;;;6.30;3.10;;;;;;;;;;2081066;28;20030;-66
2020/12/04 02:58:17;;;;;;;2.60;2.03;;;;;;;;;;2079751;28;20101;-66
2020/12/04 02:59:36;;;;;;;5.38;2.20;;;;;;;;;;2080414;28;20021;-66
2020/12/04 03:00:55;;;;;;;2.03;1.92;;;;;;;;;;2080126;28;20033;-66
2020/12/04 03:02:14;;;;;;;4.38;2.40;;;;;;;;;;2075717;28;20025;-66
2020/12/04 03:03:32;;;;;;;2.55;2.35;;;;;;;;;;2080649;28;20033;-66
2020/12/04 03:04:51;;;;;;;2.20;1.70;;;;;;;;;;2077601;28;20401;-66
2020/12/04 03:06:10;;;;;;;3.20;2.20;;;;;;;;;;2074303;28;20046;-66
2020/12/04 03:07:29;;;;;;;4.68;2.22;;;;;;;;;;2080438;28;20026;-66
2020/12/04 03:08:49;;;;;;;2.30;1.98;;;;;;;;;;2079528;28;20025;-66
2020/12/04 03:10:08;;;;;;;4.45;2.60;;;;;;;;;;2081256;28;20029;-66
2020/12/04 03:11:27;;;;;;;4.35;2.05;;;;;;;;;;2078028;28;20416;-66
2020/12/04 03:12:46;;;;;;;3.22;2.33;;;;;;;;;;2074582;28;20045;-66
2020/12/04 03:14:05;;;;;;;4.10;2.00;;;;;;;;;;2081498;28;20486;-66
2020/12/04 03:15:24;;;;;;;3.13;2.10;;;;;;;;;;2077187;28;20474;-66
2020/12/04 03:16:43;;;;;;;3.03;2.28;;;;;;;;;;2077487;28;20021;-66
2020/12/04 03:18:02;;;;;;;3.88;2.00;;;;;;;;;;2077079;28;20030;-66
2020/12/04 03:19:21;;;;;;;4.55;2.55;;;;;;;;;;2074326;28;20029;-66
2020/12/04 03:20:40;;;;;;;4.85;2.38;;;;;;;;;;2080688;28;20025;-66
2020/12/04 03:21:59;;;;;;;2.53;2.20;;;;;;;;;;2078626;28;20101;-66
2020/12/04 03:23:18;;;;;;;2.35;2.00;;;;;;;;;;2077995;28;20124;-66
2020/12/04 03:24:37;;;;;;;2.63;2.15;;;;;;;;;;2079793;28;20057;-66
2020/12/04 03:25:56;;;;;;;5.35;2.50;;;;;;;;;;2079112;28;20026;-67
2020/12/04 03:27:15;;;;;;;2.50;1.98;;;;;;;;;;2079733;28;20521;-67
2020/12/04 03:28:34;;;;;;;2.13;1.90;;;;;;;;;;2079217;28;20049;-66
2020/12/04 03:29:53;;;;;;;5.35;2.00;;;;;;;;;;2078934;28;20381;-66
2020/12/04 03:31:12;;;;;;;2.65;2.05;;;;;;;;;;2079946;28;20112;-66
2020/12/04 03:32:32;;;;;;;3.17;1.98;;;;;;;;;;2080337;28;20026;-66
2020/12/04 03:33:51;;;;;;;2.00;1.77;;;;;;;;;;2079157;28;20045;-66
2020/12/04 03:35:09;;;;;;;5.15;2.30;;;;;;;;;;2080398;28;20057;-66
2020/12/04 03:36:28;;;;;;;2.97;1.95;;;;;;;;;;2080248;28;20029;-66
2020/12/04 03:37:47;;;;;;;1.83;1.55;;;;;;;;;;2078917;28;20100;-66
2020/12/04 03:39:06;;;;;;;1.58;1.48;;;;;;;;;;2078550;28;20395;-66
2020/12/04 03:40:26;;;;;;;1.70;1.60;;;;;;;;;;2078314;28;20027;-66
2020/12/04 03:41:45;;;;;;;3.08;1.67;;;;;;;;;;2079881;28;20014;-66
2020/12/04 03:43:03;;;;;;;1.70;1.60;;;;;;;;;;2072308;28;20069;-66
2020/12/04 03:44:22;;;;;;;2.00;1.40;;;;;;;;;;2079709;28;20026;-67
2020/12/04 03:45:41;;;;;;;2.55;1.50;;;;;;;;;;2079922;28;20026;-67
2020/12/04 03:47:00;;;;;;;5.35;2.20;;;;;;;;;;2080440;28;20045;-67
2020/12/04 03:48:19;;;;;;;2.00;1.38;;;;;;;;;;2079214;28;20417;-67
2020/12/04 03:49:38;;;;;;;3.33;1.20;;;;;;;;;;2079885;28;20481;-67
2020/12/04 03:50:57;;;;;;;1.77;1.67;;;;;;;;;;2079544;28;20489;-67
2020/12/04 03:52:20;;;;;;;0.80;0.75;;;;;;;;;;2080297;28;20037;-67
2020/12/04 03:53:39;;;;;;;2.83;1.05;;;;;;;;;;2077794;28;20097;-66
2020/12/04 03:54:58;;;;;;;0.98;0.85;;;;;;;;;;2079582;28;20030;-66
2020/12/04 03:56:17;;;;;;;1.60;0.85;;;;;;;;;;2079684;28;20049;-67
2020/12/04 03:57:36;;;;;;;1.17;0.88;;;;;;;;;;2080140;28;20030;-67
2020/12/04 03:58:55;;;;;;;0.90;0.77;;;;;;;;;;2079672;28;20025;-67
2020/12/04 04:00:14;;;;;;;1.73;0.90;;;;;;;;;;2078627;28;20049;-66
2020/12/04 04:01:33;;;;;;;1.40;1.00;;;;;;;;;;2069926;28;20025;-66
2020/12/04 04:02:52;;;;;;;1.48;0.95;;;;;;;;;;2076387;28;20034;-67
2020/12/04 04:04:11;;;;;;;1.73;1.00;;;;;;;;;;2077893;28;20500;-67
2020/12/04 04:05:30;;;;;;;3.30;0.90;;;;;;;;;;2080466;28;20034;-67
2020/12/04 04:06:49;;;;;;;2.40;0.80;;;;;;;;;;2080391;28;20025;-67
2020/12/04 04:08:08;;;;;;;2.30;1.05;;;;;;;;;;2076171;28;20029;-66
2020/12/04 04:09:26;;;;;;;5.10;1.70;;;;;;;;;;2077236;28;20493;-67
2020/12/04 04:10:45;;;;;;;4.90;0.90;;;;;;;;;;2078127;28;20405;-67
2020/12/04 04:12:04;;;;;;;2.85;1.13;;;;;;;;;;2080896;28;20474;-67
2020/12/04 04:13:23;;;;;;;2.67;0.90;;;;;;;;;;2077656;28;20030;-66
2020/12/04 04:14:42;;;;;;;2.88;1.00;;;;;;;;;;2078339;28;20057;-66
2020/12/04 04:16:01;;;;;;;2.92;1.05;;;;;;;;;;2080509;28;20033;-66
2020/12/04 04:17:20;;;;;;;1.52;1.27;;;;;;;;;;2077488;28;20021;-66
2020/12/04 04:18:39;;;;;;;1.40;1.10;;;;;;;;;;2081283;28;20021;-66
2020/12/04 04:19:58;;;;;;;2.17;1.13;;;;;;;;;;2080189;28;20377;-66
2020/12/04 04:21:16;;;;;;;2.22;1.08;;;;;;;;;;2082762;28;20101;-66
2020/12/04 04:22:36;;;;;;;3.53;1.35;;;;;;;;;;2081018;28;20473;-66
2020/12/04 04:23:54;;;;;;;2.25;1.25;;;;;;;;;;2081670;28;20029;-66
2020/12/04 04:25:15;;;;;;;1.65;1.30;;;;;;;;;;2081970;28;20026;-66
2020/12/04 04:26:34;;;;;;;4.68;1.50;;;;;;;;;;2082152;28;20034;-66
2020/12/04 04:27:53;;;;;;;2.03;1.10;;;;;;;;;;2081584;28;20469;-66
2020/12/04 04:29:12;;;;;;;6.28;1.52;;;;;;;;;;2082598;28;20033;-66
2020/12/04 04:30:31;;;;;;;2.58;1.65;;;;;;;;;;2082412;28;20041;-66
2020/12/04 04:31:52;;;;;;;4.65;1.58;;;;;;;;;;2081708;28;20025;-66
2020/12/04 04:33:11;;;;;;;3.03;1.15;;;;;;;;;;2079346;28;20030;-66
2020/12/04 04:34:30;;;;;;;1.40;1.30;;;;;;;;;;2076446;28;20037;-67
2020/12/04 04:35:49;;;;;;;3.45;1.40;;;;;;;;;;2082402;28;20021;-67
2020/12/04 04:37:08;;;;;;;3.28;1.02;;;;;;;;;;2081077;28;20101;-67
2020/12/04 04:38:27;;;;;;;4.55;1.58;;;;;;;;;;2084499;28;20026;-67
2020/12/04 04:39:46;;;;;;;3.72;1.65;;;;;;;;;;2080351;28;20351;-67
2020/12/04 04:41:05;;;;;;;6.78;1.50;;;;;;;;;;2081651;28;20381;-66
2020/12/04 04:42:24;;;;;;;3.05;1.67;;;;;;;;;;2078043;28;20041;-67
2020/12/04 04:43:43;;;;;;;3.13;1.23;;;;;;;;;;2080818;28;20065;-67
2020/12/04 04:45:03;;;;;;;1.98;1.70;;;;;;;;;;2081709;28;20033;-67
2020/12/04 04:46:30;;;;;;;7.25;1.60;;;;;;;;;;2082122;28;20478;-67
2020/12/04 04:47:49;;;;;;;2.33;1.50;;;;;;;;;;2081987;28;20481;-67
2020/12/04 04:49:13;;;;;;;4.45;1.48;;;;;;;;;;2082252;28;20541;-67
2020/12/04 04:50:32;;;;;;;2.72;1.83;;;;;;;;;;2080386;28;20112;-67
2020/12/04 04:51:51;;;;;;;8.98;1.80;;;;;;;;;;2079146;28;20469;-67
2020/12/04 04:53:10;;;;;;;3.42;1.77;;;;;;;;;;2081501;28;20033;-67
2020/12/04 04:54:30;;;;;;;4.28;1.95;;;;;;;;;;2078281;28;20034;-67
2020/12/04 04:55:49;;;;;;;1.85;1.73;;;;;;;;;;2080253;28;20021;-67
2020/12/04 04:57:09;;;;;;;2.80;1.90;;;;;;;;;;2081339;28;20061;-67
2020/12/04 04:58:30;;;;;;;4.60;2.15;;;;;;;;;;2081858;28;20060;-67
2020/12/04 04:59:49;;;;;;;5.55;2.17;;;;;;;;;;2081539;28;20034;-67
2020/12/04 05:01:08;;;;;;;5.32;1.83;;;;;;;;;;2081116;28;20033;-67
2020/12/04 05:02:27;;;;;;;4.97;2.00;;;;;;;;;;2081468;28;20421;-67
2020/12/04 05:03:56;;;;;;;9.07;2.78;;;;;;;;;;2079808;28;20022;-67
2020/12/04 05:05:15;;;;;;;5.63;2.63;;;;;;;;;;2082461;28;20464;-68
2020/12/04 05:06:34;;;;;;;4.78;2.00;;;;;;;;;;2080291;28;20034;-68
2020/12/04 05:07:54;;;;;;;2.85;2.00;;;;;;;;;;2081393;28;20029;-65
2020/12/04 05:09:19;;;;;;;4.53;2.35;;;;;;;;;;2079776;28;20026;-68
2020/12/04 05:10:38;;;;;;;5.15;2.10;;;;;;;;;;2079005;28;20105;-68
2020/12/04 05:11:59;;;;;;;2.28;1.83;;;;;;;;;;2080073;28;20049;-68
2020/12/04 05:13:19;;;;;;;4.38;2.53;;;;;;;;;;2081175;28;20060;-68
2020/12/04 05:14:38;;;;;;;6.18;2.70;;;;;;;;;;2076227;28;20038;-67
2020/12/04 05:15:57;;;;;;;6.65;2.88;;;;;;;;;;2074881;28;20026;-67
2020/12/04 05:17:16;;;;;;;4.65;1.90;;;;;;;;;;2081631;28;20029;-67
2020/12/04 05:18:38;;;;;;;3.17;2.50;;;;;;;;;;2081846;28;20022;-66
2020/12/04 05:19:57;;;;;;;8.05;2.65;;;;;;;;;;2075445;28;20026;-67
2020/12/04 05:21:16;;;;;;;6.53;2.65;;;;;;;;;;2079018;28;20029;-65
2020/12/04 05:22:36;;;;;;;6.72;2.65;;;;;;;;;;2081641;28;20053;-65
2020/12/04 05:23:54;;;;;;;7.25;2.33;;;;;;;;;;2082302;28;20393;-64
2020/12/04 05:25:13;;;;;;;4.53;3.05;;;;;;;;;;2079042;28;20033;-67
2020/12/04 05:26:34;;;;;;;6.20;2.80;;;;;;;;;;2078981;28;20030;-68
2020/12/04 05:27:53;;;;;;;4.28;3.10;;;;;;;;;;2080317;28;20030;-66
2020/12/04 05:29:11;;;;;;;7.63;2.40;;;;;;;;;;2078402;28;20041;-66
2020/12/04 05:30:30;;;;;;;5.82;2.88;;;;;;;;;;2082265;28;20045;-64
2020/12/04 05:31:50;;;;;;;6.32;2.60;;;;;;;;;;2083003;28;20104;-64
2020/12/04 05:33:10;;;;;;;5.00;2.95;;;;;;;;;;2081687;28;20017;-65
2020/12/04 05:34:29;;;;;;;6.95;3.10;;;;;;;;;;2081481;28;20030;-64
2020/12/04 05:35:52;;;;;;;5.07;2.78;;;;;;;;;;2081002;28;20108;-65
2020/12/04 05:37:11;;;;;;;7.82;3.13;;;;;;;;;;2081387;28;20482;-65
2020/12/04 05:38:30;;;;;;;3.33;2.95;;;;;;;;;;2081194;28;20029;-65
2020/12/04 05:39:49;;;;;;;5.10;2.97;;;;;;;;;;2079065;28;20108;-65
2020/12/04 05:41:08;;;;;;;4.57;3.35;;;;;;;;;;2095128;28;20069;-64
2020/12/04 05:42:32;;;;;;;5.50;3.38;;;;;;;;;;2084451;28;20037;-64
2020/12/04 05:43:52;;;;;;;9.38;3.58;;;;;;;;;;2080705;28;20017;-64
2020/12/04 05:45:11;;;;;;;8.82;3.83;;;;;;;;;;2081491;28;20037;-64
2020/12/04 05:46:31;;;;;;;5.78;3.30;;;;;;;;;;2079039;28;20025;-65
2020/12/04 05:47:50;;;;;;;3.85;3.45;;;;;;;;;;2080765;28;20330;-65
2020/12/04 05:49:09;;;;;;;6.70;3.60;;;;;;;;;;2079946;28;20029;-65
2020/12/04 05:50:28;;;;;;;4.72;3.70;;;;;;;;;;2080638;28;20489;-65
2020/12/04 05:51:51;;;;;;;3.95;3.47;;;;;;;;;;2080455;28;20037;-65
2020/12/04 05:53:10;;;;;;;11.90;4.22;;;;;;;;;;2079134;28;20390;-64
2020/12/04 05:54:29;;;;;;;5.97;4.07;;;;;;;;;;2076885;28;20025;-64
2020/12/04 05:55:53;;;;;;;8.48;4.85;;;;;;;;;;2080373;28;20025;-65
2020/12/04 05:57:13;;;;;;;7.45;4.40;;;;;;;;;;2080873;28;20029;-64
2020/12/04 05:58:33;;;;;;;4.90;4.22;;;;;;;;;;2078775;28;20033;-65
2020/12/04 05:59:52;;;;;;;10.27;4.18;;;;;;;;;;2076728;28;20025;-65
2020/12/04 06:01:11;;;;;;;6.43;3.97;;;;;;;;;;2077373;28;20517;-64
2020/12/04 06:02:30;;;;;;;8.32;5.43;;;;;;;;;;2079930;28;20037;-65
2020/12/04 06:03:58;;;;;;;10.85;4.85;;;;;;;;;;2079920;28;20045;-65
2020/12/04 06:05:17;;;;;;;8.20;4.70;;;;;;;;;;2080586;28;20481;-64
2020/12/04 06:06:37;;;;;;;5.45;4.45;;;;;;;;;;2077075;28;20045;-68
2020/12/04 06:08:00;;;;;;;6.18;4.90;;;;;;;;;;2077268;28;20381;-66
2020/12/04 06:09:20;;;;;;;13.65;6.10;;;;;;;;;;2076973;28;20033;-66
2020/12/04 06:10:39;;;;;;;11.55;5.68;;;;;;;;;;2079822;28;20033;-65
2020/12/04 06:11:58;;;;;;;9.13;5.55;;;;;;;;;;2079104;28;20029;-65
2020/12/04 06:13:17;;;;;;;9.02;5.38;;;;;;;;;;2080304;28;20381;-65
2020/12/04 06:14:36;;;;;;;16.02;5.70;;;;;;;;;;2078136;28;20029;-67
2020/12/04 06:16:09;;;;;;;9.77;5.82;;;;;;;;;;2075898;28;20038;-65
2020/12/04 06:17:29;;;;;;;12.10;6.93;;;;;;;;;;2080223;28;20029;-66
2020/12/04 06:18:47;;;;;;;10.93;6.88;;;;;;;;;;2082187;28;20025;-65
2020/12/04 06:20:16;;;;;;;12.40;7.60;;;;;;;;;;2079231;28;20495;-65
2020/12/04 06:21:46;;;;;;;15.38;7.03;;;;;;;;;;2079742;28;20465;-65
2020/12/04 06:23:15;;;;;;;10.00;6.57;;;;;;;;;;2080110;28;20108;-67
2020/12/04 06:24:55;;;;;;;8.13;6.65;;;;;;;;;;2074522;28;20022;-66
2020/12/04 06:26:14;;;;;;;11.55;7.45;;;;;;;;;;2075420;28;20021;-65
2020/12/04 06:27:32;;;;;;;12.98;7.82;;;;;;;;;;2075378;28;20022;-68
2020/12/04 06:28:55;;;;;;;12.52;7.65;;;;;;;;;;2075645;28;20049;-67
2020/12/04 06:30:15;;;;;;;13.60;8.07;;;;;;;;;;2074637;28;20037;-67
2020/12/04 06:31:34;;;;;;;11.05;7.15;;;;;;;;;;2078881;28;20025;-65
2020/12/04 06:32:53;;;;;;;13.07;7.25;;;;;;;;;;2080967;28;20350;-64
2020/12/04 06:34:16;;;;;;;12.23;7.40;;;;;;;;;;2077556;28;20351;-65
2020/12/04 06:35:42;;;;;;;11.73;7.75;;;;;;;;;;2079371;28;20100;-64
2020/12/04 06:37:01;;;;;;;12.13;8.18;;;;;;;;;;2080826;28;20026;-63
2020/12/04 06:38:32;;;;;;;12.70;8.75;;;;;;;;;;2080120;28;20040;-64
2020/12/04 06:39:51;;;;;;;12.50;7.97;;;;;;;;;;2078285;28;20048;-64
2020/12/04 06:41:29;;;;;;;11.73;7.78;;;;;;;;;;2078298;28;20029;-66
2020/12/04 06:42:48;;;;;;;17.23;8.38;;;;;;;;;;2074366;28;20025;-65
2020/12/04 06:44:15;;;;;;;14.23;8.02;;;;;;;;;;2080350;28;20025;-66
2020/12/04 06:45:49;;;;;;;13.65;8.02;;;;;;;;;;2080801;28;20033;-65
2020/12/04 06:47:19;;;;;;;12.52;8.07;;;;;;;;;;2080655;28;20061;-64
2020/12/04 06:48:38;;;;;;;12.73;8.48;;;;;;;;;;2079222;28;20497;-64
2020/12/04 06:49:57;;;;;;;12.80;8.15;;;;;;;;;;2078347;28;20437;-66
2020/12/04 06:51:17;;;;;;;16.27;8.77;;;;;;;;;;2077168;28;20041;-65
2020/12/04 06:52:37;;;;;;;16.85;8.98;;;;;;;;;;2080002;28;20061;-64
2020/12/04 06:53:56;;;;;;;16.08;9.00;;;;;;;;;;2080210;28;20029;-64
2020/12/04 06:55:15;;;;;;;11.57;8.32;;;;;;;;;;2079476;28;20108;-66
2020/12/04 06:56:34;;;;;;;17.30;9.30;;;;;;;;;;2079185;28;20033;-64
2020/12/04 06:57:58;;;;;;;16.90;9.02;;;;;;;;;;2077483;28;20049;-64
2020/12/04 06:59:20;;;;;;;18.20;9.60;;;;;;;;;;2079692;28;20497;-64
2020/12/04 07:00:39;;;;;;;17.90;8.98;;;;;;;;;;2078968;28;20029;-64
2020/12/04 07:02:02;;;;;;;15.18;9.10;;;;;;;;;;2078004;28;20068;-64
2020/12/04 07:03:21;;;;;;;13.88;9.38;;;;;;;;;;2080470;28;20037;-64
2020/12/04 07:04:41;;;;;;;17.73;8.77;;;;;;;;;;2078647;28;20100;-64
2020/12/04 07:06:00;;;;;;;12.88;8.60;;;;;;;;;;2078610;28;20022;-64
2020/12/04 07:07:19;;;;;;;16.55;8.65;;;;;;;;;;2079788;28;20034;-64
2020/12/04 07:08:53;;;;;;;17.52;9.70;;;;;;;;;;2076180;28;20022;-63
2020/12/04 07:10:12;;;;;;;13.15;8.75;;;;;;;;;;2078619;28;20421;-63
2020/12/04 07:11:31;;;;;;;12.25;8.30;;;;;;;;;;2079528;28;20026;-63
2020/12/04 07:12:56;;;;;;;11.85;8.50;;;;;;;;;;2078344;28;20481;-63
2020/12/04 07:14:19;;;;;;;17.90;8.63;;;;;;;;;;2079899;28;20060;-63
2020/12/04 07:15:38;;;;;;;14.80;8.40;;;;;;;;;;2077121;28;20026;-64
2020/12/04 07:16:57;;;;;;;13.00;9.45;;;;;;;;;;2078470;28;20541;-65
2020/12/04 07:18:17;;;;;;;11.80;8.40;;;;;;;;;;2077501;28;20029;-64
2020/12/04 07:19:35;;;;;;;15.15;9.20;;;;;;;;;;2074677;28;20034;-63
2020/12/04 07:20:56;;;;;;;14.88;9.35;;;;;;;;;;2080560;28;20056;-64
2020/12/04 07:22:18;;;;;;;13.63;8.80;;;;;;;;;;2080892;28;20416;-63
2020/12/04 07:23:37;;;;;;;18.30;9.95;;;;;;;;;;2080114;28;20108;-66
2020/12/04 07:24:57;;;;;;;16.48;9.52;;;;;;;;;;2080219;28;20112;-65
2020/12/04 07:26:16;;;;;;;15.20;9.70;;;;;;;;;;2079221;28;20021;-64
2020/12/04 07:27:35;;;;;;;18.83;9.52;;;;;;;;;;2075654;28;20033;-63
2020/12/04 07:28:55;;;;;;;14.23;9.10;;;;;;;;;;2082004;28;20041;-64
2020/12/04 07:30:14;;;;;;;16.38;9.07;;;;;;;;;;2080651;28;20030;-64
2020/12/04 07:31:34;;;;;;;14.55;8.50;;;;;;;;;;2081172;28;20038;-64
2020/12/04 07:32:53;;;;;;;15.85;9.40;;;;;;;;;;2080678;28;20385;-63
2020/12/04 07:34:12;;;;;;;14.95;8.35;;;;;;;;;;2080691;28;20061;-64
2020/12/04 07:35:31;;;;;;;16.35;8.93;;;;;;;;;;2081126;28;20030;-64
2020/12/04 07:36:52;;;;;;;16.25;9.52;;;;;;;;;;2076592;28;20021;-65
2020/12/04 07:38:11;;;;;;;17.38;9.98;;;;;;;;;;2078871;28;20034;-64
2020/12/04 07:39:31;;;;;;;15.68;9.10;;;;;;;;;;2080304;28;20349;-66
2020/12/04 07:40:50;;;;;;;14.93;9.52;;;;;;;;;;2080861;28;20026;-64
2020/12/04 07:42:10;;;;;;;12.35;8.65;;;;;;;;;;2080244;28;20080;-64
2020/12/04 07:43:30;;;;;;;16.27;9.75;;;;;;;;;;2080774;28;20022;-64
2020/12/04 07:44:52;;;;;;;14.95;9.82;;;;;;;;;;2080320;28;20025;-64
2020/12/04 07:46:17;;;;;;;16.88;9.60;;;;;;;;;;2078651;28;20025;-64
2020/12/04 07:47:41;;;;;;;18.45;10.13;;;;;;;;;;2080419;28;20041;-64
2020/12/04 07:49:11;;;;;;;14.23;9.55;;;;;;;;;;2080154;28;20029;-63
2020/12/04 07:50:30;;;;;;;17.63;10.32;;;;;;;;;;2079175;28;20105;-63
2020/12/04 07:51:49;;;;;;;16.13;10.68;;;;;;;;;;2080761;28;20113;-64
2020/12/04 07:53:08;;;;;;;18.13;10.82;;;;;;;;;;2082412;28;20029;-65
2020/12/04 07:54:27;;;;;;;23.17;10.75;;;;;;;;;;2079587;28;20026;-67